sensor_id;sensor_type;location;lat;lon;timestamp;temperature;humidity
8888;DHT22;4480;52.370;9.748;2023-11-21T00:01:01;8.50;99.90
8888;DHT22;4480;52.370;9.748;2023-11-21T00:03:29;8.60;99.90
8888;DHT22;4480;52.370;9.748;2023-11-21T00:05:57;8.60;99.90
8888;DHT22;4480;52.370;9.748;2023-11-21T00:08:24;8.50;99.90
8888;DHT22;4480;52.370;9.748;2023-11-21T00:10:51;8.50;99.90
8888;DHT22;4480;52.370;9.748;2023-11-21T00:13:17;8.50;99.90
8888;DHT22;4480;52.370;9.748;2023-11-21T00:15:44;8.50;99.90
8888;DHT22;4480;52.370;9.748;2023-11-21T00:18:11;8.50;99.90
8888;DHT22;4480;52.370;9.748;2023-11-21T00:20:38;8.50;99.90
8888;DHT22;4480;52.370;9.748;2023-11-21T00:23:06;8.50;99.90
8888;DHT22;4480;52.370;9.748;2023-11-21T00:25:33;8.50;99.90
8888;DHT22;4480;52.370;9.748;2023-11-21T00:27:59;8.50;99.90
8888;DHT22;4480;52.370;9.748;2023-11-21T00:30:27;8.60;99.90
8888;DHT22;4480;52.370;9.748;2023-11-21T00:32:54;8.60;99.90
8888;DHT22;4480;52.370;9.748;2023-11-21T00:35:21;8.50;99.90
8888;DHT22;4480;52.370;9.748;2023-11-21T00:37:47;8.60;99.90
8888;DHT22;4480;52.370;9.748;2023-11-21T00:40:16;8.60;99.90
8888;DHT22;4480;52.370;9.748;2023-11-21T00:42:46;8.50;99.90
8888;DHT22;4480;52.370;9.748;2023-11-21T00:45:13;8.50;99.90
8888;DHT22;4480;52.370;9.748;2023-11-21T00:47:40;8.50;99.90
8888;DHT22;4480;52.370;9.748;2023-11-21T00:50:08;8.50;99.90
8888;DHT22;4480;52.370;9.748;2023-11-21T00:52:35;8.50;99.90
8888;DHT22;4480;52.370;9.748;2023-11-21T00:55:02;8.50;99.90
8888;DHT22;4480;52.370;9.748;2023-11-21T00:57:30;8.50;99.90
8888;DHT22;4480;52.370;9.748;2023-11-21T00:59:56;8.50;99.90
8888;DHT22;4480;52.370;9.748;2023-11-21T01:02:23;8.50;99.90
8888;DHT22;4480;52.370;9.748;2023-11-21T01:04:50;8.50;99.90
8888;DHT22;4480;52.370;9.748;2023-11-21T01:07:17;8.50;99.90
8888;DHT22;4480;52.370;9.748;2023-11-21T01:09:45;8.50;99.90
8888;DHT22;4480;52.370;9.748;2023-11-21T01:12:12;8.50;99.90
8888;DHT22;4480;52.370;9.748;2023-11-21T01:14:40;8.50;99.90
8888;DHT22;4480;52.370;9.748;2023-11-21T01:17:07;8.50;99.90
8888;DHT22;4480;52.370;9.748;2023-11-21T01:19:34;8.50;99.90
8888;DHT22;4480;52.370;9.748;2023-11-21T01:22:01;8.50;99.90
8888;DHT22;4480;52.370;9.748;2023-11-21T01:24:27;8.50;99.90
8888;DHT22;4480;52.370;9.748;2023-11-21T01:26:54;8.50;99.90
8888;DHT22;4480;52.370;9.748;2023-11-21T01:29:21;8.50;99.90
8888;DHT22;4480;52.370;9.748;2023-11-21T01:31:49;8.50;99.90
8888;DHT22;4480;52.370;9.748;2023-11-21T01:34:17;8.50;99.90
8888;DHT22;4480;52.370;9.748;2023-11-21T01:36:45;8.50;99.90
8888;DHT22;4480;52.370;9.748;2023-11-21T01:39:12;8.50;99.90
8888;DHT22;4480;52.370;9.748;2023-11-21T01:41:41;8.50;99.90
8888;DHT22;4480;52.370;9.748;2023-11-21T01:44:09;8.50;99.90
8888;DHT22;4480;52.370;9.748;2023-11-21T01:46:36;8.50;99.90
8888;DHT22;4480;52.370;9.748;2023-11-21T01:49:05;8.50;99.90
8888;DHT22;4480;52.370;9.748;2023-11-21T01:51:32;8.50;99.90
8888;DHT22;4480;52.370;9.748;2023-11-21T01:53:59;8.50;99.90
8888;DHT22;4480;52.370;9.748;2023-11-21T01:56:26;8.40;99.90
8888;DHT22;4480;52.370;9.748;2023-11-21T01:58:53;8.40;99.90
8888;DHT22;4480;52.370;9.748;2023-11-21T02:01:20;8.50;99.90
8888;DHT22;4480;52.370;9.748;2023-11-21T02:03:47;8.40;99.90
8888;DHT22;4480;52.370;9.748;2023-11-21T02:06:15;8.40;99.90
8888;DHT22;4480;52.370;9.748;2023-11-21T02:08:42;8.40;99.90
8888;DHT22;4480;52.370;9.748;2023-11-21T02:11:09;8.40;99.90
8888;DHT22;4480;52.370;9.748;2023-11-21T02:13:38;8.40;99.90
8888;DHT22;4480;52.370;9.748;2023-11-21T02:16:08;8.40;99.90
8888;DHT22;4480;52.370;9.748;2023-11-21T02:18:36;8.40;99.90
8888;DHT22;4480;52.370;9.748;2023-11-21T02:21:04;8.30;99.90
8888;DHT22;4480;52.370;9.748;2023-11-21T02:23:33;8.30;99.90
8888;DHT22;4480;52.370;9.748;2023-11-21T02:26:00;8.30;99.90
8888;DHT22;4480;52.370;9.748;2023-11-21T02:28:29;8.30;99.90
8888;DHT22;4480;52.370;9.748;2023-11-21T02:30:56;8.30;99.90
8888;DHT22;4480;52.370;9.748;2023-11-21T02:33:24;8.30;99.90
8888;DHT22;4480;52.370;9.748;2023-11-21T02:35:51;8.30;99.90
8888;DHT22;4480;52.370;9.748;2023-11-21T02:38:20;8.30;99.90
8888;DHT22;4480;52.370;9.748;2023-11-21T02:40:48;8.30;99.90
8888;DHT22;4480;52.370;9.748;2023-11-21T02:43:15;8.30;99.90
8888;DHT22;4480;52.370;9.748;2023-11-21T02:45:42;8.30;99.90
8888;DHT22;4480;52.370;9.748;2023-11-21T02:48:09;8.30;99.90
8888;DHT22;4480;52.370;9.748;2023-11-21T02:50:35;8.30;99.90
8888;DHT22;4480;52.370;9.748;2023-11-21T02:53:02;8.30;99.90
8888;DHT22;4480;52.370;9.748;2023-11-21T02:55:31;8.30;99.90
8888;DHT22;4480;52.370;9.748;2023-11-21T02:58:01;8.30;99.90
8888;DHT22;4480;52.370;9.748;2023-11-21T03:00:29;8.40;99.90
8888;DHT22;4480;52.370;9.748;2023-11-21T03:02:56;8.30;99.90
8888;DHT22;4480;52.370;9.748;2023-11-21T03:05:23;8.40;99.90
8888;DHT22;4480;52.370;9.748;2023-11-21T03:07:49;8.40;99.90
8888;DHT22;4480;52.370;9.748;2023-11-21T03:10:16;8.40;99.90
8888;DHT22;4480;52.370;9.748;2023-11-21T03:12:43;8.40;99.90
8888;DHT22;4480;52.370;9.748;2023-11-21T03:15:11;8.40;99.90
8888;DHT22;4480;52.370;9.748;2023-11-21T03:17:38;8.50;99.90
8888;DHT22;4480;52.370;9.748;2023-11-21T03:20:07;8.50;99.90
8888;DHT22;4480;52.370;9.748;2023-11-21T03:22:36;8.50;99.90
8888;DHT22;4480;52.370;9.748;2023-11-21T03:25:03;8.50;99.90
8888;DHT22;4480;52.370;9.748;2023-11-21T03:27:31;8.60;99.90
8888;DHT22;4480;52.370;9.748;2023-11-21T03:29:58;8.60;99.90
8888;DHT22;4480;52.370;9.748;2023-11-21T03:32:26;8.60;99.90
8888;DHT22;4480;52.370;9.748;2023-11-21T03:34:54;8.60;99.90
8888;DHT22;4480;52.370;9.748;2023-11-21T03:37:22;8.60;99.90
8888;DHT22;4480;52.370;9.748;2023-11-21T03:39:49;8.60;99.90
8888;DHT22;4480;52.370;9.748;2023-11-21T03:42:15;8.60;99.90
8888;DHT22;4480;52.370;9.748;2023-11-21T03:44:42;8.60;99.90
8888;DHT22;4480;52.370;9.748;2023-11-21T03:47:09;8.60;99.90
8888;DHT22;4480;52.370;9.748;2023-11-21T03:49:38;8.60;99.90
8888;DHT22;4480;52.370;9.748;2023-11-21T03:52:05;8.50;99.90
8888;DHT22;4480;52.370;9.748;2023-11-21T03:54:33;8.50;99.90
8888;DHT22;4480;52.370;9.748;2023-11-21T03:56:59;8.50;99.90
8888;DHT22;4480;52.370;9.748;2023-11-21T03:59:26;8.50;99.90
8888;DHT22;4480;52.370;9.748;2023-11-21T04:01:55;8.40;99.90
8888;DHT22;4480;52.370;9.748;2023-11-21T04:04:22;8.40;99.90
8888;DHT22;4480;52.370;9.748;2023-11-21T04:06:50;8.40;99.90
8888;DHT22;4480;52.370;9.748;2023-11-21T04:12:35;8.40;99.90
8888;DHT22;4480;52.370;9.748;2023-11-21T04:15:03;8.40;99.90
8888;DHT22;4480;52.370;9.748;2023-11-21T04:17:30;8.40;99.90
8888;DHT22;4480;52.370;9.748;2023-11-21T04:19:57;8.40;99.90
8888;DHT22;4480;52.370;9.748;2023-11-21T04:24:49;8.30;99.90
8888;DHT22;4480;52.370;9.748;2023-11-21T04:27:16;8.30;99.90
8888;DHT22;4480;52.370;9.748;2023-11-21T04:29:45;8.30;99.90
8888;DHT22;4480;52.370;9.748;2023-11-21T04:32:12;8.30;99.90
8888;DHT22;4480;52.370;9.748;2023-11-21T04:34:39;8.30;99.90
8888;DHT22;4480;52.370;9.748;2023-11-21T04:37:05;8.30;99.90
8888;DHT22;4480;52.370;9.748;2023-11-21T04:39:32;8.30;99.90
8888;DHT22;4480;52.370;9.748;2023-11-21T04:41:59;8.30;99.90
8888;DHT22;4480;52.370;9.748;2023-11-21T04:44:26;8.30;99.90
8888;DHT22;4480;52.370;9.748;2023-11-21T04:46:54;8.30;99.90
8888;DHT22;4480;52.370;9.748;2023-11-21T04:49:21;8.30;99.90
8888;DHT22;4480;52.370;9.748;2023-11-21T04:51:47;8.30;99.90
8888;DHT22;4480;52.370;9.748;2023-11-21T04:54:14;8.30;99.90
8888;DHT22;4480;52.370;9.748;2023-11-21T04:56:41;8.30;99.90
8888;DHT22;4480;52.370;9.748;2023-11-21T04:59:08;8.20;99.90
8888;DHT22;4480;52.370;9.748;2023-11-21T05:01:34;8.20;99.90
8888;DHT22;4480;52.370;9.748;2023-11-21T05:04:03;8.30;99.90
8888;DHT22;4480;52.370;9.748;2023-11-21T05:06:31;8.30;99.90
8888;DHT22;4480;52.370;9.748;2023-11-21T05:08:58;8.30;99.90
8888;DHT22;4480;52.370;9.748;2023-11-21T05:11:25;8.20;99.90
8888;DHT22;4480;52.370;9.748;2023-11-21T05:13:52;8.20;99.90
8888;DHT22;4480;52.370;9.748;2023-11-21T05:16:20;8.20;99.90
8888;DHT22;4480;52.370;9.748;2023-11-21T05:18:47;8.20;99.90
8888;DHT22;4480;52.370;9.748;2023-11-21T05:21:17;8.20;99.90
8888;DHT22;4480;52.370;9.748;2023-11-21T05:23:46;8.20;99.90
8888;DHT22;4480;52.370;9.748;2023-11-21T05:26:13;8.20;99.90
8888;DHT22;4480;52.370;9.748;2023-11-21T05:28:39;8.20;99.90
8888;DHT22;4480;52.370;9.748;2023-11-21T05:31:06;8.20;99.90
8888;DHT22;4480;52.370;9.748;2023-11-21T05:33:33;8.20;99.90
8888;DHT22;4480;52.370;9.748;2023-11-21T05:36:00;8.20;99.90
8888;DHT22;4480;52.370;9.748;2023-11-21T05:38:28;8.20;99.90
8888;DHT22;4480;52.370;9.748;2023-11-21T05:40:55;8.20;99.90
8888;DHT22;4480;52.370;9.748;2023-11-21T05:43:24;8.20;99.90
8888;DHT22;4480;52.370;9.748;2023-11-21T05:45:50;8.20;99.90
8888;DHT22;4480;52.370;9.748;2023-11-21T05:48:17;8.10;99.90
8888;DHT22;4480;52.370;9.748;2023-11-21T05:50:44;8.20;99.90
8888;DHT22;4480;52.370;9.748;2023-11-21T05:53:11;8.20;99.90
8888;DHT22;4480;52.370;9.748;2023-11-21T05:55:39;8.20;99.90
8888;DHT22;4480;52.370;9.748;2023-11-21T05:58:05;8.20;99.90
8888;DHT22;4480;52.370;9.748;2023-11-21T06:00:32;8.20;99.90
8888;DHT22;4480;52.370;9.748;2023-11-21T06:02:59;8.10;99.90
8888;DHT22;4480;52.370;9.748;2023-11-21T06:05:26;8.10;99.90
8888;DHT22;4480;52.370;9.748;2023-11-21T06:07:55;8.10;99.90
8888;DHT22;4480;52.370;9.748;2023-11-21T06:10:24;8.10;99.90
8888;DHT22;4480;52.370;9.748;2023-11-21T06:12:52;8.10;99.90
8888;DHT22;4480;52.370;9.748;2023-11-21T06:15:19;8.10;99.90
8888;DHT22;4480;52.370;9.748;2023-11-21T06:17:47;8.10;99.90
8888;DHT22;4480;52.370;9.748;2023-11-21T06:20:18;8.10;99.90
8888;DHT22;4480;52.370;9.748;2023-11-21T06:22:47;8.10;99.90
8888;DHT22;4480;52.370;9.748;2023-11-21T06:25:14;8.10;99.90
8888;DHT22;4480;52.370;9.748;2023-11-21T06:27:42;8.20;99.90
8888;DHT22;4480;52.370;9.748;2023-11-21T06:30:12;8.10;99.90
8888;DHT22;4480;52.370;9.748;2023-11-21T06:32:41;8.20;99.90
8888;DHT22;4480;52.370;9.748;2023-11-21T06:35:11;8.20;99.90
8888;DHT22;4480;52.370;9.748;2023-11-21T06:37:38;8.20;99.90
8888;DHT22;4480;52.370;9.748;2023-11-21T06:40:06;8.20;99.90
8888;DHT22;4480;52.370;9.748;2023-11-21T06:42:35;8.10;99.90
8888;DHT22;4480;52.370;9.748;2023-11-21T06:45:04;8.20;99.90
8888;DHT22;4480;52.370;9.748;2023-11-21T06:47:32;8.20;99.90
8888;DHT22;4480;52.370;9.748;2023-11-21T06:49:59;8.10;99.90
8888;DHT22;4480;52.370;9.748;2023-11-21T06:52:26;7.90;99.90
8888;DHT22;4480;52.370;9.748;2023-11-21T06:54:53;7.70;99.90
8888;DHT22;4480;52.370;9.748;2023-11-21T06:57:20;7.60;99.90
8888;DHT22;4480;52.370;9.748;2023-11-21T06:59:47;7.50;99.90
8888;DHT22;4480;52.370;9.748;2023-11-21T07:02:14;7.40;99.90
8888;DHT22;4480;52.370;9.748;2023-11-21T07:04:45;7.30;99.90
8888;DHT22;4480;52.370;9.748;2023-11-21T07:07:12;7.20;99.90
8888;DHT22;4480;52.370;9.748;2023-11-21T07:09:39;7.20;99.90
8888;DHT22;4480;52.370;9.748;2023-11-21T07:12:06;7.10;99.90
8888;DHT22;4480;52.370;9.748;2023-11-21T07:14:33;7.10;99.90
8888;DHT22;4480;52.370;9.748;2023-11-21T07:17:00;7.00;99.90
8888;DHT22;4480;52.370;9.748;2023-11-21T07:19:27;6.90;99.90
8888;DHT22;4480;52.370;9.748;2023-11-21T07:21:55;6.90;99.90
8888;DHT22;4480;52.370;9.748;2023-11-21T07:24:22;6.90;99.90
8888;DHT22;4480;52.370;9.748;2023-11-21T07:26:49;6.90;99.90
8888;DHT22;4480;52.370;9.748;2023-11-21T07:29:16;6.90;99.90
8888;DHT22;4480;52.370;9.748;2023-11-21T07:31:43;6.80;99.90
8888;DHT22;4480;52.370;9.748;2023-11-21T07:34:10;6.80;99.90
8888;DHT22;4480;52.370;9.748;2023-11-21T07:36:37;6.80;99.90
8888;DHT22;4480;52.370;9.748;2023-11-21T07:39:05;6.80;99.90
8888;DHT22;4480;52.370;9.748;2023-11-21T07:41:32;6.80;99.90
8888;DHT22;4480;52.370;9.748;2023-11-21T07:43:59;6.80;99.90
8888;DHT22;4480;52.370;9.748;2023-11-21T07:46:26;6.80;99.90
8888;DHT22;4480;52.370;9.748;2023-11-21T07:48:53;6.80;99.90
8888;DHT22;4480;52.370;9.748;2023-11-21T07:51:18;6.80;99.90
8888;DHT22;4480;52.370;9.748;2023-11-21T07:53:45;6.80;99.90
8888;DHT22;4480;52.370;9.748;2023-11-21T07:56:13;6.80;99.90
8888;DHT22;4480;52.370;9.748;2023-11-21T07:58:40;6.70;99.90
8888;DHT22;4480;52.370;9.748;2023-11-21T08:01:07;6.80;99.90
8888;DHT22;4480;52.370;9.748;2023-11-21T08:03:34;6.80;99.90
8888;DHT22;4480;52.370;9.748;2023-11-21T08:06:01;6.70;99.90
8888;DHT22;4480;52.370;9.748;2023-11-21T08:08:29;6.70;99.90
8888;DHT22;4480;52.370;9.748;2023-11-21T08:10:56;6.70;99.90
8888;DHT22;4480;52.370;9.748;2023-11-21T08:13:24;6.60;99.90
8888;DHT22;4480;52.370;9.748;2023-11-21T08:15:54;6.60;99.90
8888;DHT22;4480;52.370;9.748;2023-11-21T08:18:21;6.60;99.90
8888;DHT22;4480;52.370;9.748;2023-11-21T08:20:48;6.60;99.90
8888;DHT22;4480;52.370;9.748;2023-11-21T08:23:15;6.60;99.90
8888;DHT22;4480;52.370;9.748;2023-11-21T08:25:43;6.60;99.90
8888;DHT22;4480;52.370;9.748;2023-11-21T08:28:10;6.70;99.90
8888;DHT22;4480;52.370;9.748;2023-11-21T08:30:38;6.70;99.90
8888;DHT22;4480;52.370;9.748;2023-11-21T08:33:07;6.60;99.90
8888;DHT22;4480;52.370;9.748;2023-11-21T08:35:34;6.70;99.90
8888;DHT22;4480;52.370;9.748;2023-11-21T08:38:01;6.70;99.90
8888;DHT22;4480;52.370;9.748;2023-11-21T08:40:28;6.70;99.90
8888;DHT22;4480;52.370;9.748;2023-11-21T08:42:55;6.70;99.90
8888;DHT22;4480;52.370;9.748;2023-11-21T08:45:24;6.80;99.90
8888;DHT22;4480;52.370;9.748;2023-11-21T08:47:52;6.80;99.90
8888;DHT22;4480;52.370;9.748;2023-11-21T08:50:19;6.80;99.90
8888;DHT22;4480;52.370;9.748;2023-11-21T08:52:47;6.80;99.90
8888;DHT22;4480;52.370;9.748;2023-11-21T08:55:14;6.80;99.90
8888;DHT22;4480;52.370;9.748;2023-11-21T08:57:43;6.90;99.90
8888;DHT22;4480;52.370;9.748;2023-11-21T09:00:11;6.90;99.90
8888;DHT22;4480;52.370;9.748;2023-11-21T09:02:38;6.90;99.90
8888;DHT22;4480;52.370;9.748;2023-11-21T09:05:09;6.90;99.90
8888;DHT22;4480;52.370;9.748;2023-11-21T09:07:37;7.00;99.90
8888;DHT22;4480;52.370;9.748;2023-11-21T09:10:05;7.10;99.90
8888;DHT22;4480;52.370;9.748;2023-11-21T09:12:34;7.10;99.90
8888;DHT22;4480;52.370;9.748;2023-11-21T09:15:02;7.10;99.90
8888;DHT22;4480;52.370;9.748;2023-11-21T09:17:30;7.10;99.90
8888;DHT22;4480;52.370;9.748;2023-11-21T09:19:57;7.10;99.90
8888;DHT22;4480;52.370;9.748;2023-11-21T09:22:25;7.20;99.90
8888;DHT22;4480;52.370;9.748;2023-11-21T09:24:52;7.10;99.90
8888;DHT22;4480;52.370;9.748;2023-11-21T09:27:19;7.20;99.90
8888;DHT22;4480;52.370;9.748;2023-11-21T09:29:47;7.20;99.90
8888;DHT22;4480;52.370;9.748;2023-11-21T09:32:14;7.30;99.90
8888;DHT22;4480;52.370;9.748;2023-11-21T09:34:41;7.30;99.90
8888;DHT22;4480;52.370;9.748;2023-11-21T09:37:08;7.30;99.90
8888;DHT22;4480;52.370;9.748;2023-11-21T09:39:36;7.30;99.90
8888;DHT22;4480;52.370;9.748;2023-11-21T09:42:08;7.30;99.90
8888;DHT22;4480;52.370;9.748;2023-11-21T09:44:44;7.30;99.90
8888;DHT22;4480;52.370;9.748;2023-11-21T09:47:15;7.20;99.90
8888;DHT22;4480;52.370;9.748;2023-11-21T09:49:46;7.20;99.90
8888;DHT22;4480;52.370;9.748;2023-11-21T09:52:21;7.20;99.90
8888;DHT22;4480;52.370;9.748;2023-11-21T09:54:53;7.20;99.90
8888;DHT22;4480;52.370;9.748;2023-11-21T09:57:20;7.20;99.90
8888;DHT22;4480;52.370;9.748;2023-11-21T09:59:51;7.20;99.90
8888;DHT22;4480;52.370;9.748;2023-11-21T10:02:21;7.20;99.90
8888;DHT22;4480;52.370;9.748;2023-11-21T10:04:51;7.20;99.90
8888;DHT22;4480;52.370;9.748;2023-11-21T10:07:19;7.20;99.90
8888;DHT22;4480;52.370;9.748;2023-11-21T10:09:47;7.20;99.90
8888;DHT22;4480;52.370;9.748;2023-11-21T10:12:16;7.20;99.90
8888;DHT22;4480;52.370;9.748;2023-11-21T10:14:43;7.30;99.90
8888;DHT22;4480;52.370;9.748;2023-11-21T10:17:14;7.40;99.90
8888;DHT22;4480;52.370;9.748;2023-11-21T10:19:46;7.50;99.90
8888;DHT22;4480;52.370;9.748;2023-11-21T10:22:14;7.50;99.90
8888;DHT22;4480;52.370;9.748;2023-11-21T10:24:42;7.60;99.90
8888;DHT22;4480;52.370;9.748;2023-11-21T10:27:09;7.70;99.90
8888;DHT22;4480;52.370;9.748;2023-11-21T10:29:37;7.70;99.90
8888;DHT22;4480;52.370;9.748;2023-11-21T10:32:05;7.70;99.90
8888;DHT22;4480;52.370;9.748;2023-11-21T10:34:33;7.70;99.90
8888;DHT22;4480;52.370;9.748;2023-11-21T10:37:11;7.70;99.90
8888;DHT22;4480;52.370;9.748;2023-11-21T10:39:39;7.60;99.90
8888;DHT22;4480;52.370;9.748;2023-11-21T10:42:08;7.60;99.90
8888;DHT22;4480;52.370;9.748;2023-11-21T10:44:37;7.60;99.90
8888;DHT22;4480;52.370;9.748;2023-11-21T10:47:03;7.60;99.90
8888;DHT22;4480;52.370;9.748;2023-11-21T10:49:30;7.60;99.90
8888;DHT22;4480;52.370;9.748;2023-11-21T10:51:57;7.70;99.90
8888;DHT22;4480;52.370;9.748;2023-11-21T10:54:24;7.70;99.90
8888;DHT22;4480;52.370;9.748;2023-11-21T10:56:56;7.70;99.90
8888;DHT22;4480;52.370;9.748;2023-11-21T10:59:23;7.60;99.90
8888;DHT22;4480;52.370;9.748;2023-11-21T11:01:53;7.60;99.90
8888;DHT22;4480;52.370;9.748;2023-11-21T11:04:22;7.60;99.90
8888;DHT22;4480;52.370;9.748;2023-11-21T11:06:54;7.70;99.90
8888;DHT22;4480;52.370;9.748;2023-11-21T11:09:22;7.70;99.90
8888;DHT22;4480;52.370;9.748;2023-11-21T11:11:49;7.70;99.90
8888;DHT22;4480;52.370;9.748;2023-11-21T11:14:19;7.70;99.90
8888;DHT22;4480;52.370;9.748;2023-11-21T11:16:50;7.70;99.90
8888;DHT22;4480;52.370;9.748;2023-11-21T11:19:19;7.70;99.90
8888;DHT22;4480;52.370;9.748;2023-11-21T11:21:53;7.80;99.90
8888;DHT22;4480;52.370;9.748;2023-11-21T11:24:33;7.80;99.90
8888;DHT22;4480;52.370;9.748;2023-11-21T11:27:11;7.80;99.90
8888;DHT22;4480;52.370;9.748;2023-11-21T11:29:48;7.80;99.90
8888;DHT22;4480;52.370;9.748;2023-11-21T11:32:24;7.90;99.90
8888;DHT22;4480;52.370;9.748;2023-11-21T11:35:04;8.00;99.90
8888;DHT22;4480;52.370;9.748;2023-11-21T11:37:32;8.10;99.90
8888;DHT22;4480;52.370;9.748;2023-11-21T11:39:59;8.20;99.90
8888;DHT22;4480;52.370;9.748;2023-11-21T11:42:26;8.20;99.90
8888;DHT22;4480;52.370;9.748;2023-11-21T11:44:54;8.10;99.90
8888;DHT22;4480;52.370;9.748;2023-11-21T11:47:25;8.00;99.90
8888;DHT22;4480;52.370;9.748;2023-11-21T11:50:02;7.90;99.90
8888;DHT22;4480;52.370;9.748;2023-11-21T11:52:40;7.80;99.90
8888;DHT22;4480;52.370;9.748;2023-11-21T11:55:08;7.80;99.90
8888;DHT22;4480;52.370;9.748;2023-11-21T11:57:37;7.80;99.90
8888;DHT22;4480;52.370;9.748;2023-11-21T12:00:17;7.80;99.90
8888;DHT22;4480;52.370;9.748;2023-11-21T12:02:51;7.80;99.90
8888;DHT22;4480;52.370;9.748;2023-11-21T12:05:21;7.80;99.90
8888;DHT22;4480;52.370;9.748;2023-11-21T12:07:50;7.80;99.90
8888;DHT22;4480;52.370;9.748;2023-11-21T12:10:19;7.90;99.90
8888;DHT22;4480;52.370;9.748;2023-11-21T12:12:47;8.00;99.90
8888;DHT22;4480;52.370;9.748;2023-11-21T12:15:15;8.10;99.90
8888;DHT22;4480;52.370;9.748;2023-11-21T12:17:42;8.20;99.90
8888;DHT22;4480;52.370;9.748;2023-11-21T12:20:10;8.20;99.90
8888;DHT22;4480;52.370;9.748;2023-11-21T12:22:46;8.20;99.90
8888;DHT22;4480;52.370;9.748;2023-11-21T12:25:14;8.30;99.90
8888;DHT22;4480;52.370;9.748;2023-11-21T12:27:44;8.30;99.90
8888;DHT22;4480;52.370;9.748;2023-11-21T12:30:12;8.30;99.90
8888;DHT22;4480;52.370;9.748;2023-11-21T12:32:41;8.30;99.90
8888;DHT22;4480;52.370;9.748;2023-11-21T12:35:09;8.30;99.90
8888;DHT22;4480;52.370;9.748;2023-11-21T12:37:36;8.20;99.90
8888;DHT22;4480;52.370;9.748;2023-11-21T12:40:07;8.10;99.90
8888;DHT22;4480;52.370;9.748;2023-11-21T12:42:37;8.00;99.90
8888;DHT22;4480;52.370;9.748;2023-11-21T12:45:08;7.90;99.90
8888;DHT22;4480;52.370;9.748;2023-11-21T12:47:40;7.90;99.90
8888;DHT22;4480;52.370;9.748;2023-11-21T12:50:08;7.80;99.90
8888;DHT22;4480;52.370;9.748;2023-11-21T12:52:40;7.80;99.90
8888;DHT22;4480;52.370;9.748;2023-11-21T12:55:13;7.80;99.90
8888;DHT22;4480;52.370;9.748;2023-11-21T12:57:42;7.90;99.90
8888;DHT22;4480;52.370;9.748;2023-11-21T13:00:10;7.90;99.90
8888;DHT22;4480;52.370;9.748;2023-11-21T13:02:51;7.90;99.90
8888;DHT22;4480;52.370;9.748;2023-11-21T13:05:24;7.90;99.90
8888;DHT22;4480;52.370;9.748;2023-11-21T13:07:51;7.90;99.90
8888;DHT22;4480;52.370;9.748;2023-11-21T13:10:22;7.90;99.90
8888;DHT22;4480;52.370;9.748;2023-11-21T13:12:52;7.90;99.90
8888;DHT22;4480;52.370;9.748;2023-11-21T13:15:20;7.90;99.90
8888;DHT22;4480;52.370;9.748;2023-11-21T13:17:47;7.90;99.90
8888;DHT22;4480;52.370;9.748;2023-11-21T13:20:14;7.90;99.90
8888;DHT22;4480;52.370;9.748;2023-11-21T13:22:47;7.80;99.90
8888;DHT22;4480;52.370;9.748;2023-11-21T13:25:15;7.90;99.90
8888;DHT22;4480;52.370;9.748;2023-11-21T13:27:44;7.90;99.90
8888;DHT22;4480;52.370;9.748;2023-11-21T13:30:12;8.00;99.90
8888;DHT22;4480;52.370;9.748;2023-11-21T13:32:42;8.00;99.90
8888;DHT22;4480;52.370;9.748;2023-11-21T13:35:09;8.00;99.90
8888;DHT22;4480;52.370;9.748;2023-11-21T13:37:48;8.00;99.90
8888;DHT22;4480;52.370;9.748;2023-11-21T13:40:20;8.00;99.90
8888;DHT22;4480;52.370;9.748;2023-11-21T13:42:49;8.00;99.90
8888;DHT22;4480;52.370;9.748;2023-11-21T13:45:19;7.90;99.90
8888;DHT22;4480;52.370;9.748;2023-11-21T13:47:48;7.90;99.90
8888;DHT22;4480;52.370;9.748;2023-11-21T13:50:16;7.80;99.90
8888;DHT22;4480;52.370;9.748;2023-11-21T13:52:48;7.80;99.90
8888;DHT22;4480;52.370;9.748;2023-11-21T13:55:16;7.80;99.90
8888;DHT22;4480;52.370;9.748;2023-11-21T13:57:43;7.80;99.90
8888;DHT22;4480;52.370;9.748;2023-11-21T14:00:16;7.70;99.90
8888;DHT22;4480;52.370;9.748;2023-11-21T14:02:57;7.70;99.90
8888;DHT22;4480;52.370;9.748;2023-11-21T14:05:26;7.70;99.90
8888;DHT22;4480;52.370;9.748;2023-11-21T14:07:55;7.70;99.90
8888;DHT22;4480;52.370;9.748;2023-11-21T14:10:28;7.70;99.90
8888;DHT22;4480;52.370;9.748;2023-11-21T14:13:02;7.60;99.90
8888;DHT22;4480;52.370;9.748;2023-11-21T14:15:32;7.60;99.90
8888;DHT22;4480;52.370;9.748;2023-11-21T14:18:03;7.60;99.90
8888;DHT22;4480;52.370;9.748;2023-11-21T14:20:33;7.60;99.90
8888;DHT22;4480;52.370;9.748;2023-11-21T14:23:01;7.50;99.90
8888;DHT22;4480;52.370;9.748;2023-11-21T14:25:28;7.50;99.90
8888;DHT22;4480;52.370;9.748;2023-11-21T14:27:55;7.40;99.90
8888;DHT22;4480;52.370;9.748;2023-11-21T14:30:22;7.40;99.90
8888;DHT22;4480;52.370;9.748;2023-11-21T14:32:51;7.40;99.90
8888;DHT22;4480;52.370;9.748;2023-11-21T14:35:18;7.30;99.90
8888;DHT22;4480;52.370;9.748;2023-11-21T14:37:45;7.30;99.90
8888;DHT22;4480;52.370;9.748;2023-11-21T14:40:12;7.20;99.90
8888;DHT22;4480;52.370;9.748;2023-11-21T14:42:41;7.20;99.90
8888;DHT22;4480;52.370;9.748;2023-11-21T14:45:10;7.20;99.90
8888;DHT22;4480;52.370;9.748;2023-11-21T14:47:38;7.10;99.90
8888;DHT22;4480;52.370;9.748;2023-11-21T14:50:11;7.10;99.90
8888;DHT22;4480;52.370;9.748;2023-11-21T14:52:51;7.10;99.90
8888;DHT22;4480;52.370;9.748;2023-11-21T14:55:24;7.10;99.90
8888;DHT22;4480;52.370;9.748;2023-11-21T14:57:57;7.00;99.90
8888;DHT22;4480;52.370;9.748;2023-11-21T15:00:28;7.00;99.90
8888;DHT22;4480;52.370;9.748;2023-11-21T15:03:06;6.90;99.90
8888;DHT22;4480;52.370;9.748;2023-11-21T15:05:36;6.90;99.90
8888;DHT22;4480;52.370;9.748;2023-11-21T15:08:04;6.80;99.90
8888;DHT22;4480;52.370;9.748;2023-11-21T15:10:47;6.80;99.90
8888;DHT22;4480;52.370;9.748;2023-11-21T15:13:19;6.80;99.90
8888;DHT22;4480;52.370;9.748;2023-11-21T15:15:45;6.70;99.90
8888;DHT22;4480;52.370;9.748;2023-11-21T15:18:12;6.70;99.90
8888;DHT22;4480;52.370;9.748;2023-11-21T15:20:41;6.70;99.90
8888;DHT22;4480;52.370;9.748;2023-11-21T15:23:08;6.70;99.90
8888;DHT22;4480;52.370;9.748;2023-11-21T15:25:36;6.70;99.90
8888;DHT22;4480;52.370;9.748;2023-11-21T15:28:02;6.70;99.90
8888;DHT22;4480;52.370;9.748;2023-11-21T15:30:30;6.60;99.90
8888;DHT22;4480;52.370;9.748;2023-11-21T15:32:57;6.60;99.90
8888;DHT22;4480;52.370;9.748;2023-11-21T15:35:24;6.50;99.90
8888;DHT22;4480;52.370;9.748;2023-11-21T15:37:54;6.50;99.90
8888;DHT22;4480;52.370;9.748;2023-11-21T15:40:23;6.50;99.90
8888;DHT22;4480;52.370;9.748;2023-11-21T15:42:50;6.40;99.90
8888;DHT22;4480;52.370;9.748;2023-11-21T15:45:17;6.40;99.90
8888;DHT22;4480;52.370;9.748;2023-11-21T15:47:47;6.40;99.90
8888;DHT22;4480;52.370;9.748;2023-11-21T15:50:14;6.40;99.90
8888;DHT22;4480;52.370;9.748;2023-11-21T15:52:41;6.40;99.90
8888;DHT22;4480;52.370;9.748;2023-11-21T15:55:10;6.40;99.90
8888;DHT22;4480;52.370;9.748;2023-11-21T15:57:38;6.40;99.90
8888;DHT22;4480;52.370;9.748;2023-11-21T16:00:06;6.30;99.90
8888;DHT22;4480;52.370;9.748;2023-11-21T16:02:41;6.40;99.90
8888;DHT22;4480;52.370;9.748;2023-11-21T16:05:08;6.40;99.90
8888;DHT22;4480;52.370;9.748;2023-11-21T16:07:35;6.40;99.90
8888;DHT22;4480;52.370;9.748;2023-11-21T16:10:04;6.40;99.90
8888;DHT22;4480;52.370;9.748;2023-11-21T16:12:33;6.40;99.90
8888;DHT22;4480;52.370;9.748;2023-11-21T16:15:00;6.30;99.90
8888;DHT22;4480;52.370;9.748;2023-11-21T16:17:33;6.30;99.90
8888;DHT22;4480;52.370;9.748;2023-11-21T16:20:00;6.30;99.90
8888;DHT22;4480;52.370;9.748;2023-11-21T16:22:30;6.30;99.90
8888;DHT22;4480;52.370;9.748;2023-11-21T16:24:58;6.30;99.90
8888;DHT22;4480;52.370;9.748;2023-11-21T16:27:25;6.30;99.90
8888;DHT22;4480;52.370;9.748;2023-11-21T16:29:53;6.20;99.90